Página principal
METAR-TAF:

METAR-TAF

Aeroportos :

Aeroporto Internacional de Mehrabad

Teerã, Irão

latitude: 35-41N, longitude: 051-21E, altura: 1204 m

Observação actual do tempo

O boletim foi feito há 26 minutos, às 06:00 UTC
Vento 4 kt de oes-sudoeste
Temperatura 9°C
Humidade 57%
Pressão 1020 hPa
Visibilidade: 7000 m
Poucas nuvensa uma altura de 9000 ft

METAR: OIII 100600Z 24004KT 7000 FEW090 09/01 Q1019 A3011 NOSIG

Hora: 09:56 (06:26 UTC)

Previsão

O boletim foi feito há 56 minutos, às 05:30 UTC
Previsão válida de 10 às 06 UTC a 11 às 12 UTC
Vento 8 kt de oes-noroeste
Visibilidade: 8000 m
Poucas nuvensa uma altura de 4000 ft
Nuvens dispersasa uma altura de 9000 ft
Temporariamente
de 10 às 10 UTC a 10 às 16 UTC
Vento 17 kt de oes-noroeste
Poucas nuvensa uma altura de 3500 ft, Cumulonimbus.
Nuvens dispersasa uma altura de 10000 ft

TAF: OIII 100530Z 1006/1112 30004MPS 8000 FEW040 SCT090 TEMPO 1010/1016 30009MPS FEW035CB SCT100

Observações e previsões do tempo de mais de 4000 aeroportos (mensagens METAR e TAF).

As estações disponíveis são os pontos amarelos e vermelhos sobre o mapa.

Mova o rato sobre o mapa para ver o nome da estação.

Depois clique no ponto para visualizar as observações e previsões meteorológicas.

Para alterar o mapa : clique nos botões verdes com uma cruz preta para aumentar o zoom; no botão verde com uma pitada de zoom; ou nas setas verdes para mapas adjacentes.


METAR-TAF: